Weather reports worldwide

Advertisment
Fylingdales, United Kingdom (3281): temperature & dewpoint: 07.12.2017 13:00:00 - 13.12.2017 13:00:00 (GMT)Fylingdales, United Kingdom (3281): wind speed & gusts: 07.12.2017 13:00:00 - 13.12.2017 13:00:00 (GMT)Fylingdales, United Kingdom (3281): wind direction: 07.12.2017 13:00:00 - 13.12.2017 13:00:00 (GMT)Fylingdales, United Kingdom (3281): precipitation: 07.12.2017 13:00:00 - 13.12.2017 13:00:00 (GMT)
Date & Time tt [°C] td [°C] ff [km/h] ff [kn] fx [km/h] fx [kn] dd rr [mm]
13.12.2017 13:00:00 - - - - - - - 0,6
13.12.2017 12:00:00 3,3 3,2 35 19 52 28 SW 0,0
13.12.2017 11:00:00 2,8 2,7 29 16 - - SSW 0,0
13.12.2017 10:00:00 2,6 2,5 28 15 - - SSW 0,0
13.12.2017 09:00:00 2,5 2,3 26 14 - - SW 0,0
13.12.2017 08:00:00 2,0 1,8 28 15 - - SSW 0,0
13.12.2017 07:00:00 1,7 1,6 21 11 - - SSW 0,0
13.12.2017 06:00:00 1,5 1,3 15 8 - - SSW 0,0
13.12.2017 05:00:00 1,3 1,2 15 8 - - SSW 0,0
13.12.2017 04:00:00 1,3 1,2 21 11 - - SW 0,0
13.12.2017 03:00:00 1,3 1,2 24 13 - - SW 0,0
13.12.2017 02:00:00 1,1 1,0 26 14 - - SW 0,4
13.12.2017 01:00:00 1,0 0,9 18 10 - - SSW 0,8
13.12.2017 00:00:00 0,6 0,5 29 16 - - SSW 1,0
12.12.2017 23:00:00 0,7 0,6 31 17 59 32 SSW 1,4
12.12.2017 22:00:00 0,5 0,4 35 19 54 29 S 0,0
12.12.2017 21:00:00 0,2 0,0 34 18 48 26 SSW 0,0
12.12.2017 20:00:00 -0,5 -0,8 28 15 - - SSW 0,0
12.12.2017 19:00:00 -0,2 -0,6 24 13 - - SSW 0,0
12.12.2017 18:00:00 -0,6 -1,0 26 14 - - SSW 0,0
12.12.2017 17:00:00 -0,6 -0,8 21 11 - - SSW 0,0
12.12.2017 16:00:00 -1,0 -1,1 18 10 - - SW 0,0
12.12.2017 15:00:00 -1,8 -2,2 16 9 - - SSW 0,0
12.12.2017 14:00:00 -0,6 -1,6 21 11 - - SW 0,0
12.12.2017 13:00:00 -1,4 -2,0 15 8 - - SW 0,0
12.12.2017 12:00:00 -0,9 -1,9 11 6 - - SW 0,0
12.12.2017 11:00:00 -0,8 -1,8 13 7 - - SW 0,0
12.12.2017 10:00:00 -1,3 -2,2 9 5 - - SW 0,0
12.12.2017 09:00:00 -1,4 -2,2 8 4 - - SW 0,0
12.12.2017 08:00:00 -0,8 -1,4 8 4 - - NNW 0,0
12.12.2017 07:00:00 -1,3 -2,0 9 5 - - NNW 0,0
12.12.2017 06:00:00 -2,2 -2,8 5 3 - - NW 0,0
12.12.2017 05:00:00 -1,5 -1,8 11 6 - - WNW 0,0
12.12.2017 04:00:00 -2,4 -2,8 13 7 - - WNW 0,0
12.12.2017 03:00:00 -1,3 -1,5 9 5 - - NNW 0,0
12.12.2017 02:00:00 -1,5 -1,6 9 5 - - NW 0,0
12.12.2017 01:00:00 -0,8 -0,9 16 9 - - NNW 0,0
12.12.2017 00:00:00 -0,4 -0,5 16 9 - - NW 0,0
11.12.2017 23:00:00 0,0 -0,1 18 10 - - NNW 0,0
11.12.2017 22:00:00 0,0 -0,2 16 9 - - NW 0,0
11.12.2017 21:00:00 -0,8 -0,9 13 7 - - NNW 0,0
11.12.2017 20:00:00 -0,8 -0,9 15 8 - - NNW 0,0
11.12.2017 19:00:00 -1,1 -1,2 16 9 - - NNW 0,0
11.12.2017 18:00:00 -1,4 -2,3 18 10 - - N 0,0
11.12.2017 17:00:00 -2,3 -3,2 13 7 - - N 0,0
11.12.2017 16:00:00 -1,9 -3,2 15 8 - - NW 0,0
11.12.2017 15:00:00 -0,9 -2,4 16 9 - - NW 0,0
11.12.2017 14:00:00 -0,3 -2,2 18 10 - - NNW 0,0
11.12.2017 13:00:00 -0,8 -3,3 15 8 - - NW 0,0
11.12.2017 12:00:00 -2,4 -5,7 11 6 - - NNW 0,0
11.12.2017 11:00:00 -2,7 -5,1 11 6 - - NNW 0,0
11.12.2017 10:00:00 -2,8 -4,2 11 6 - - NNW 0,0
11.12.2017 09:00:00 -3,1 -4,5 11 6 - - NNW 0,0
11.12.2017 08:00:00 -3,7 -5,0 11 6 - - N 0,0
11.12.2017 07:00:00 -3,4 -4,7 11 6 - - NNW 0,0
11.12.2017 06:00:00 -3,9 -4,8 13 7 - - NNW 0,0
11.12.2017 05:00:00 -3,0 -4,1 11 6 - - NNW 0,0
11.12.2017 04:00:00 -2,8 -3,5 9 5 - - NNW 0,0
11.12.2017 03:00:00 -3,2 -3,8 11 6 - - NW 0,0
11.12.2017 02:00:00 -2,5 -2,8 11 6 - - NNW 0,0
11.12.2017 01:00:00 -2,3 -2,5 11 6 - - NNW 0,0
11.12.2017 00:00:00 -2,6 -3,0 9 5 - - NNW 0,0
10.12.2017 23:00:00 -3,2 -3,9 11 6 - - NNW 0,0
10.12.2017 22:00:00 -2,5 -3,4 9 5 - - NNW 0,0
10.12.2017 21:00:00 -2,1 -3,1 8 4 - - NNW 0,0
10.12.2017 20:00:00 -2,4 -3,5 9 5 - - NNW 0,0
10.12.2017 19:00:00 -0,7 -2,8 15 8 - - NE 0,0
10.12.2017 18:00:00 0,4 -4,0 13 7 - - N 0,0
10.12.2017 17:00:00 0,7 -3,8 15 8 - - N 0,0
10.12.2017 16:00:00 0,7 -4,1 16 9 - - NNE 0,0
10.12.2017 15:00:00 0,7 -3,9 16 9 - - NNE 0,0
10.12.2017 14:00:00 0,4 -3,4 16 9 - - NNE 0,0
10.12.2017 13:00:00 -0,1 -1,8 15 8 - - NE 0,0
10.12.2017 12:00:00 0,0 -2,6 13 7 - - ENE 0,0
10.12.2017 11:00:00 -0,1 -1,4 13 7 - - NE 0,0
10.12.2017 10:00:00 -1,1 -1,7 15 8 - - ENE 0,0
10.12.2017 09:00:00 -1,5 -2,0 9 5 - - E 0,0
10.12.2017 08:00:00 -1,9 -2,7 8 4 - - SW 0,0
10.12.2017 07:00:00 -2,2 -3,0 9 5 - - WSW 0,0
10.12.2017 06:00:00 -2,2 -2,4 4 2 - - WNW 0,0
10.12.2017 05:00:00 -2,4 -2,5 2 1 - - NNW 0,0
10.12.2017 04:00:00 -2,1 -2,2 9 5 - - NNW 0,0
10.12.2017 03:00:00 -2,1 -2,2 4 2 - - N 0,0
10.12.2017 02:00:00 -2,2 -2,3 13 7 - - N 0,0
10.12.2017 01:00:00 -2,4 -2,6 11 6 - - NNW 0,0
10.12.2017 00:00:00 -4,3 -4,7 9 5 - - N 0,0
09.12.2017 23:00:00 -4,3 -4,6 13 7 - - N 0,0
09.12.2017 22:00:00 -4,6 -5,7 11 6 - - N 0,0
09.12.2017 21:00:00 -4,8 -5,6 5 3 - - N 0,0
09.12.2017 20:00:00 -4,0 -5,2 5 3 - - N 0,0
09.12.2017 19:00:00 -3,4 -5,3 4 2 - - N 0,0
09.12.2017 18:00:00 -2,5 -4,7 15 8 - - N 0,0
09.12.2017 17:00:00 -2,1 -4,5 11 6 - - NW 0,0
09.12.2017 16:00:00 -1,0 -4,3 21 11 - - W 0,0
09.12.2017 15:00:00 0,1 -4,2 22 12 - - W 0,0
09.12.2017 14:00:00 0,9 -4,0 24 13 - - WNW 0,0
09.12.2017 13:00:00 0,8 -4,4 22 12 - - W 0,0
09.12.2017 12:00:00 0,1 -4,6 18 10 - - NW 0,0
09.12.2017 11:00:00 0,0 -4,6 26 14 - - WNW 0,0
09.12.2017 10:00:00 -0,7 -4,9 26 14 - - WNW 0,0
09.12.2017 09:00:00 -2,5 -6,0 9 5 - - NW 0,0
09.12.2017 08:00:00 -2,8 -6,2 9 5 - - NW 0,0
09.12.2017 07:00:00 -1,9 -5,2 16 9 - - WNW 0,0
09.12.2017 06:00:00 -2,2 -5,4 22 12 - - WNW 0,0
09.12.2017 05:00:00 -1,9 -5,3 22 12 - - WNW 0,0
09.12.2017 04:00:00 -1,3 -5,0 31 17 - - WNW 0,0
09.12.2017 03:00:00 -1,3 -5,1 26 14 50 27 NW 0,0
09.12.2017 02:00:00 -1,1 -5,0 28 15 52 28 NW 0,0
09.12.2017 01:00:00 -0,9 -5,1 29 16 - - NW 0,0
09.12.2017 00:00:00 -1,2 -5,7 31 17 48 26 NW 0,0
08.12.2017 23:00:00 -1,2 -5,7 29 16 46 25 NW 0,0
08.12.2017 22:00:00 -1,2 -5,9 39 21 59 32 NW 0,0
08.12.2017 21:00:00 -1,1 -6,0 44 24 63 34 WNW 0,0
08.12.2017 20:00:00 -1,2 -6,2 44 24 59 32 NW 0,0
08.12.2017 19:00:00 -1,5 -6,2 34 18 50 27 NW 0,0
08.12.2017 18:00:00 -1,3 -6,0 37 20 52 28 WNW 0,0
08.12.2017 17:00:00 -1,3 -6,1 34 18 52 28 WNW 0,0
08.12.2017 16:00:00 -0,9 -6,3 34 18 54 29 WNW 0,0
08.12.2017 15:00:00 -0,2 -6,1 37 20 57 31 WNW 0,0
08.12.2017 14:00:00 0,4 -6,4 35 19 57 31 WNW 0,0
08.12.2017 13:00:00 0,5 -6,0 41 22 59 32 WNW 0,0
08.12.2017 12:00:00 0,4 -5,8 42 23 63 34 WNW 0,0
08.12.2017 11:00:00 0,0 -5,6 46 25 65 35 WNW 0,0
08.12.2017 10:00:00 -0,7 -5,4 39 21 57 31 NW 0,0
08.12.2017 09:00:00 -1,3 -5,8 34 18 50 27 NNW 0,0
08.12.2017 08:00:00 -1,7 -5,0 35 19 54 29 NW 0,0
08.12.2017 07:00:00 -1,1 -4,8 37 20 61 33 WNW 0,0
08.12.2017 06:00:00 -0,5 -4,1 41 22 54 29 WNW 0,0
08.12.2017 05:00:00 -0,1 -3,8 39 21 52 28 WNW 0,0
08.12.2017 04:00:00 0,2 -3,3 37 20 52 28 WNW 0,0
08.12.2017 03:00:00 -0,3 -2,8 16 9 - - WNW 0,0
08.12.2017 02:00:00 -0,2 -1,9 21 11 - - WNW 0,0
08.12.2017 01:00:00 0,0 -1,2 24 13 - - W 0,0
08.12.2017 00:00:00 0,2 -0,4 29 16 - - W 0,0
07.12.2017 23:00:00 0,1 -1,6 21 11 - - WSW 0,0
07.12.2017 22:00:00 0,6 -1,8 22 12 48 26 WSW 0,0
07.12.2017 21:00:00 1,3 -1,6 28 15 46 25 W 0,0
07.12.2017 20:00:00 1,4 -1,3 26 14 48 26 W 0,0
07.12.2017 19:00:00 1,4 -1,2 34 18 55 30 W 0,0
07.12.2017 18:00:00 1,8 -1,4 31 17 59 32 W 0,0
07.12.2017 17:00:00 2,9 -0,9 35 19 63 34 W 0,0
07.12.2017 16:00:00 3,4 -0,2 39 21 67 36 W 0,0
07.12.2017 15:00:00 4,9 0,2 41 22 74 40 W 0,0
07.12.2017 14:00:00 5,1 0,5 44 24 76 41 W 0,0
07.12.2017 13:00:00 5,6 0,9 52 28 74 40 W 0,0

tt = temperature
td = dewpoint
ff = wind speed
fx = gusts
dd = wind direction
rr = precipitation

Next stations